Time;durP1;ratioP1;P1;durP2;ratioP2;P2;SDS_P1;SDS_P2;PMS_P1;PMS_P2;Temp;Humidity;BMP_temperature;BMP_pressure;BME280_temperature;BME280_humidity;BME280_pressure;Samples;Min_cycle;Max_cycle;Signal;HPM_P1;HPM_P2
2023/05/26 00:03:27;;;;;;;7.27;4.53;;;;;;;16.96;56.33;99905.34;7446246;39;20230;31
2023/05/26 00:08:46;;;;;;;7.13;4.70;;;;;;;16.91;56.32;99897.75;7381854;39;20357;31
2023/05/26 00:14:06;;;;;;;7.57;4.27;;;;;;;16.86;56.29;99904.78;7387968;39;20243;31
2023/05/26 00:19:42;;;;;;;9.30;4.80;;;;;;;16.73;56.85;99905.47;7408885;39;20308;31
2023/05/26 00:25:17;;;;;;;8.20;4.70;;;;;;;16.75;56.50;99905.28;7438762;39;20234;31
2023/05/26 00:30:38;;;;;;;7.77;5.10;;;;;;;16.75;57.12;99911.56;7467760;39;20263;31
2023/05/26 00:36:14;;;;;;;6.63;4.93;;;;;;;16.72;57.34;99902.94;7430388;39;20250;31
2023/05/26 00:41:49;;;;;;;7.15;4.70;;;;;;;16.60;57.62;99903.41;7421549;39;20239;31
2023/05/26 00:47:09;;;;;;;6.55;4.90;;;;;;;16.64;57.23;99909.31;7400790;39;20335;31
2023/05/26 00:52:46;;;;;;;9.10;4.90;;;;;;;16.67;57.04;99898.88;7444009;39;20292;31
2023/05/26 00:58:06;;;;;;;8.47;4.73;;;;;;;16.67;57.01;99904.31;7423343;39;20309;31
2023/05/26 01:03:44;;;;;;;11.03;5.30;;;;;;;16.66;57.44;99904.53;7446683;39;20234;31
2023/05/26 01:09:18;;;;;;;9.47;5.27;;;;;;;16.50;57.52;99885.63;7434796;39;20270;31
2023/05/26 01:14:54;;;;;;;6.56;4.84;;;;;;;16.44;57.79;99895.41;7422444;39;20264;31
2023/05/26 01:20:32;;;;;;;9.73;5.00;;;;;;;16.35;57.96;99893.81;7400496;39;20268;31
2023/05/26 01:26:06;;;;;;;7.00;4.90;;;;;;;16.29;58.07;99904.56;7202838;39;21241;31
2023/05/26 01:31:40;;;;;;;9.25;5.10;;;;;;;16.08;58.85;99894.41;7418611;39;21455;31
2023/05/26 01:37:15;;;;;;;7.23;5.33;;;;;;;15.96;58.41;99898.62;7446297;39;20238;31
2023/05/26 01:42:50;;;;;;;7.87;5.27;;;;;;;15.77;60.52;99895.37;7462931;39;20314;31
2023/05/26 01:48:24;;;;;;;9.05;5.45;;;;;;;15.69;60.30;99897.31;7460027;39;20240;31
2023/05/26 01:53:59;;;;;;;9.40;5.20;;;;;;;15.76;59.90;99900.97;7400022;39;20501;31
2023/05/26 01:59:34;;;;;;;13.50;5.30;;;;;;;15.61;60.60;99902.81;7347189;39;21653;31
2023/05/26 02:05:10;;;;;;;7.13;5.10;;;;;;;15.59;60.47;99899.44;7378905;39;20235;31
2023/05/26 02:10:31;;;;;;;11.57;5.33;;;;;;;15.58;59.73;99900.44;7401851;39;20319;31
2023/05/26 02:15:51;;;;;;;10.23;5.70;;;;;;;15.50;60.04;99900.47;7418044;39;21251;31
2023/05/26 02:21:25;;;;;;;10.67;6.03;;;;;;;15.39;61.25;99888.19;7393893;39;20239;31
2023/05/26 02:26:46;;;;;;;8.30;5.55;;;;;;;15.40;60.33;99898.00;7423583;39;20255;31
2023/05/26 02:32:06;;;;;;;7.85;5.50;;;;;;;15.39;60.25;99892.75;7374168;39;20455;31
2023/05/26 02:37:42;;;;;;;7.25;5.30;;;;;;;15.33;61.06;99888.88;7359097;39;20333;31
2023/05/26 02:43:17;;;;;;;10.93;5.70;;;;;;;15.21;60.44;99890.31;7361635;39;20339;31
2023/05/26 02:48:38;;;;;;;9.53;5.77;;;;;;;15.18;60.85;99885.25;7372406;39;20294;31
2023/05/26 02:54:11;;;;;;;12.57;5.87;;;;;;;15.11;61.90;99882.41;7297006;40;20246;31
2023/05/26 02:59:32;;;;;;;7.45;5.50;;;;;;;15.04;61.50;99878.72;7327561;39;20240;31
2023/05/26 03:04:50;;;;;;;9.90;5.80;;;;;;;15.00;61.23;99879.25;7375566;39;21465;31
2023/05/26 03:10:24;;;;;;;8.15;5.25;;;;;;;14.90;62.28;99882.19;7384522;39;20329;31
2023/05/26 03:15:47;;;;;;;9.00;5.77;;;;;;;14.79;62.38;99874.44;7344667;39;20369;31
2023/05/26 03:21:20;;;;;;;10.80;6.10;;;;;;;14.75;62.77;99875.81;7368015;39;20239;31
2023/05/26 03:26:56;;;;;;;8.23;5.77;;;;;;;14.70;62.58;99875.50;7401762;39;20242;31
2023/05/26 03:32:31;;;;;;;8.10;6.17;;;;;;;14.71;63.02;99878.03;7420411;39;20249;31
2023/05/26 03:37:52;;;;;;;9.53;5.60;;;;;;;14.59;63.05;99873.16;7402778;39;20243;31
2023/05/26 03:43:29;;;;;;;10.90;6.97;;;;;;;14.55;63.12;99877.25;7466271;39;20238;31
2023/05/26 03:48:50;;;;;;;8.68;6.15;;;;;;;14.50;63.31;99877.78;7466785;39;20235;31
2023/05/26 03:54:23;;;;;;;10.40;6.87;;;;;;;14.42;63.45;99878.66;7493791;39;20248;31
2023/05/26 04:05:03;;;;;;;10.63;5.60;;;;;;;14.37;63.38;99885.63;7519592;38;20246;31
2023/05/26 04:15:43;;;;;;;11.37;6.27;;;;;;;14.45;63.25;99891.03;7462250;39;20302;31
2023/05/26 04:26:24;;;;;;;11.17;5.77;;;;;;;14.33;64.63;99895.94;7424791;39;20401;31
2023/05/26 04:31:43;;;;;;;11.15;5.70;;;;;;;14.36;63.85;99909.19;7401024;39;20255;31
2023/05/26 04:37:19;;;;;;;12.10;6.00;;;;;;;14.46;64.15;99894.59;7421898;39;20323;31
2023/05/26 04:42:57;;;;;;;12.30;5.60;;;;;;;14.39;65.22;99903.41;7444751;39;20235;31
2023/05/26 04:48:30;;;;;;;8.95;5.80;;;;;;;14.53;64.47;99901.84;7431827;39;20341;31
2023/05/26 04:54:05;;;;;;;11.03;6.03;;;;;;;14.54;64.75;99913.53;7422404;39;20344;31
2023/05/26 04:59:43;;;;;;;9.05;5.90;;;;;;;14.60;64.50;99897.44;7380731;39;20359;31
2023/05/26 05:10:04;;;;;;;7.60;5.45;;;;;;;14.82;63.93;99912.94;7358317;39;20260;31
2023/05/26 05:15:40;;;;;;;10.63;5.90;;;;;;;14.96;64.48;99914.06;7377590;39;20363;31
2023/05/26 05:26:21;;;;;;;7.50;5.40;;;;;;;15.15;64.13;99923.63;7496072;38;20289;31
2023/05/26 05:37:00;;;;;;;9.00;5.50;;;;;;;15.32;64.44;99923.34;7440735;39;20373;31
2023/05/26 05:42:17;;;;;;;9.80;5.40;;;;;;;15.48;63.47;99935.16;7384814;39;20439;31
2023/05/26 05:47:53;;;;;;;12.75;5.85;;;;;;;15.53;63.60;99939.06;7393277;39;20346;31
2023/05/26 05:53:29;;;;;;;9.20;5.40;;;;;;;15.62;64.18;99934.41;7443489;39;20256;31
2023/05/26 05:58:49;;;;;;;11.67;6.13;;;;;;;15.78;63.49;99947.87;7448929;39;20261;31
2023/05/26 06:04:25;;;;;;;9.93;5.83;;;;;;;15.94;62.60;99939.56;7463906;39;20252;31
2023/05/26 06:10:01;;;;;;;11.73;5.70;;;;;;;16.14;62.60;99948.94;7443630;39;20257;31
2023/05/26 06:15:36;;;;;;;9.30;5.60;;;;;;;16.27;62.14;99947.44;7442839;39;21503;31
2023/05/26 06:20:56;;;;;;;11.35;5.95;;;;;;;16.42;61.88;99951.88;7400165;39;20238;31
2023/05/26 06:26:33;;;;;;;9.83;5.87;;;;;;;16.46;61.42;99955.06;7429888;39;20336;31
2023/05/26 06:31:53;;;;;;;9.77;5.87;;;;;;;16.64;61.41;99956.44;7471138;39;20250;31
2023/05/26 06:37:28;;;;;;;11.53;6.30;;;;;;;16.75;60.43;99959.72;7463245;39;20377;31
2023/05/26 06:43:04;;;;;;;9.43;5.87;;;;;;;17.04;60.66;99957.00;7421571;39;20337;31
2023/05/26 06:48:25;;;;;;;13.75;6.35;;;;;;;17.25;60.32;99950.75;7398446;39;20302;31
2023/05/26 06:53:57;;;;;;;11.20;6.60;;;;;;;17.31;59.51;99952.72;7378997;39;20342;31
2023/05/26 06:59:33;;;;;;;10.35;5.60;;;;;;;17.30;58.92;99946.41;7360614;39;21487;31
2023/05/26 07:04:54;;;;;;;9.30;5.93;;;;;;;17.52;58.26;99950.03;7317565;39;20266;31
2023/05/26 07:15:34;;;;;;;11.20;5.82;;;;;;;17.90;58.02;99947.94;7363418;39;20370;31
2023/05/26 07:21:09;;;;;;;11.60;6.70;;;;;;;17.96;57.74;99955.34;7344738;39;20238;31
2023/05/26 07:26:29;;;;;;;11.50;5.80;;;;;;;18.24;57.06;99956.22;7368812;39;20349;31
2023/05/26 07:32:06;;;;;;;11.70;5.97;;;;;;;18.30;56.16;99954.56;7383578;39;20344;31
2023/05/26 07:37:41;;;;;;;11.50;6.40;;;;;;;18.52;55.70;99961.69;7397393;39;20287;31
2023/05/26 07:43:16;;;;;;;10.00;6.05;;;;;;;18.62;55.40;99956.75;7358458;39;20378;31
2023/05/26 07:48:53;;;;;;;14.65;6.10;;;;;;;18.77;54.75;99952.03;7382662;39;20318;31
2023/05/26 07:54:12;;;;;;;11.40;6.00;;;;;;;18.98;54.71;99955.69;7382825;39;20347;31
2023/05/26 07:59:33;;;;;;;11.87;5.33;;;;;;;19.06;54.09;99955.53;7401033;39;20239;31
2023/05/26 08:05:10;;;;;;;10.60;6.30;;;;;;;19.28;54.28;99951.62;7445932;38;20248;31
2023/05/26 08:10:30;;;;;;;10.00;5.80;;;;;;;19.54;51.85;99956.37;7426805;39;20252;31
2023/05/26 08:15:48;;;;;;;8.43;5.20;;;;;;;19.70;52.81;99954.09;7216013;39;21238;31
2023/05/26 08:21:25;;;;;;;9.40;5.53;;;;;;;19.87;51.86;99945.53;7402297;39;20338;31
2023/05/26 08:26:59;;;;;;;19.40;6.30;;;;;;;19.94;51.44;99958.16;7442592;39;20282;31
2023/05/26 08:32:35;;;;;;;11.20;6.00;;;;;;;20.10;51.07;99962.37;7402626;39;20309;31
2023/05/26 08:38:11;;;;;;;9.90;5.80;;;;;;;20.22;50.23;99947.03;7422166;39;20254;31
2023/05/26 08:43:47;;;;;;;10.60;5.40;;;;;;;20.43;51.07;99954.22;7380628;39;20242;31
2023/05/26 08:49:22;;;;;;;10.80;5.90;;;;;;;20.51;50.08;99952.09;7370475;39;20239;31
2023/05/26 08:54:58;;;;;;;12.20;5.90;;;;;;;20.69;49.61;99955.03;7340977;39;20258;31
2023/05/26 09:00:33;;;;;;;8.40;5.30;;;;;;;20.85;49.79;99961.09;7346180;39;20311;31
2023/05/26 09:06:08;;;;;;;11.30;5.53;;;;;;;21.14;48.69;99966.12;7391294;39;20266;31
2023/05/26 09:11:46;;;;;;;10.82;6.15;;;;;;;21.26;49.53;99966.28;7438176;39;20238;31
2023/05/26 09:17:19;;;;;;;13.02;6.10;;;;;;;21.35;49.14;99965.81;7399473;39;20335;31
2023/05/26 09:22:54;;;;;;;11.65;5.45;;;;;;;21.48;49.77;99959.44;7379023;39;20361;31
2023/05/26 09:28:30;;;;;;;12.27;5.93;;;;;;;21.61;48.43;99973.09;7383580;39;20335;31
2023/05/26 09:34:05;;;;;;;9.95;5.50;;;;;;;21.68;47.69;99964.81;7328328;39;20415;31
2023/05/26 09:39:40;;;;;;;10.68;5.37;;;;;;;21.82;48.35;99971.91;7362148;39;20324;31
2023/05/26 09:45:17;;;;;;;10.57;5.00;;;;;;;21.99;46.84;99956.63;7359540;39;20501;31
2023/05/26 09:50:51;;;;;;;8.68;4.93;;;;;;;22.10;47.66;99969.66;7414246;39;20268;31
2023/05/26 09:56:26;;;;;;;10.50;5.45;;;;;;;22.18;47.32;99974.03;7402863;39;20254;31
2023/05/26 10:02:02;;;;;;;10.57;4.40;;;;;;;22.31;45.09;99972.03;7381244;39;20252;31
2023/05/26 10:07:23;;;;;;;8.90;5.10;;;;;;;22.31;46.11;99971.19;7373259;39;20996;31
2023/05/26 10:12:59;;;;;;;15.00;5.10;;;;;;;22.43;46.43;99972.13;7451371;39;20384;31
2023/05/26 10:18:35;;;;;;;10.30;4.80;;;;;;;22.37;44.30;99973.88;7413155;39;20442;31
2023/05/26 10:24:11;;;;;;;9.20;4.70;;;;;;;22.44;43.87;99971.91;7370153;39;20256;31
2023/05/26 10:29:46;;;;;;;10.97;4.90;;;;;;;22.50;44.59;99961.94;7341667;39;20248;31
2023/05/26 10:35:25;;;;;;;10.56;4.70;;;;;;;22.75;44.57;99964.69;7338641;39;20350;31
2023/05/26 10:41:00;;;;;;;8.95;4.50;;;;;;;23.02;45.36;99962.50;7377425;39;20267;31
2023/05/26 10:46:35;;;;;;;8.35;4.85;;;;;;;23.11;42.68;99975.72;7397514;39;20249;31
2023/05/26 10:52:09;;;;;;;10.60;4.80;;;;;;;23.07;43.42;99965.41;7390839;39;20246;31
2023/05/26 10:57:44;;;;;;;12.68;4.70;;;;;;;23.07;43.19;99965.41;7389615;39;20342;31
2023/05/26 11:03:31;;;;;;;10.30;4.80;;;;;;;23.19;43.92;99966.31;7435331;39;21278;31
2023/05/26 11:09:07;;;;;;;7.70;4.37;;;;;;;23.54;41.90;99961.88;7392919;39;20390;31
2023/05/26 11:14:42;;;;;;;8.23;3.97;;;;;;;23.70;41.30;99965.88;7445151;39;20239;31
2023/05/26 11:20:17;;;;;;;9.74;5.08;;;;;;;23.72;40.79;99959.09;7397156;39;20243;31
2023/05/26 11:25:57;;;;;;;9.80;4.70;;;;;;;23.86;40.76;99945.97;7380037;39;20253;31
2023/05/26 11:31:32;;;;;;;9.35;4.43;;;;;;;23.99;40.32;99958.69;7363044;39;20342;31
2023/05/26 11:37:07;;;;;;;10.53;4.97;;;;;;;23.89;40.91;99951.00;7359361;39;20240;31
2023/05/26 11:42:43;;;;;;;10.60;4.80;;;;;;;23.95;40.06;99941.81;7350951;39;20462;31
2023/05/26 11:48:03;;;;;;;10.48;4.53;;;;;;;24.30;39.91;99952.94;7358100;39;20248;31
2023/05/26 11:53:36;;;;;;;8.38;4.80;;;;;;;24.24;40.29;99942.84;7347044;39;20263;31
2023/05/26 11:59:12;;;;;;;9.00;4.62;;;;;;;24.27;39.99;99955.31;7378182;39;20239;31
2023/05/26 12:04:32;;;;;;;8.18;4.28;;;;;;;24.42;39.62;99947.44;7409649;39;20239;31
2023/05/26 12:10:18;;;;;;;6.62;4.08;;;;;;;24.53;36.90;99938.31;7433545;39;20324;31
2023/05/26 12:15:55;;;;;;;7.33;4.13;;;;;;;24.58;38.37;99931.00;7446458;39;20402;31
2023/05/26 12:26:33;;;;;;;8.25;4.50;;;;;;;24.64;37.54;99929.22;7442162;39;20254;31
2023/05/26 12:32:10;;;;;;;7.45;4.20;;;;;;;24.68;37.35;99927.66;7403256;39;20243;31
2023/05/26 12:37:44;;;;;;;7.20;4.10;;;;;;;24.70;36.29;99918.06;7361010;39;20267;31
2023/05/26 12:43:05;;;;;;;6.57;3.97;;;;;;;24.80;36.25;99922.13;7357506;39;20263;31
2023/05/26 12:53:45;;;;;;;6.33;4.20;;;;;;;24.81;36.97;99915.53;7409578;39;20256;31
2023/05/26 12:59:20;;;;;;;8.80;4.45;;;;;;;25.06;36.82;99900.41;7401031;39;20239;31
2023/05/26 13:09:58;;;;;;;7.55;4.00;;;;;;;25.20;35.66;99905.66;7484404;38;20305;31
2023/05/26 13:15:18;;;;;;;10.50;3.98;;;;;;;25.26;35.33;99904.69;7445315;39;20331;31
2023/05/26 13:20:53;;;;;;;7.30;4.08;;;;;;;25.08;34.71;99903.78;7358862;39;20317;31
2023/05/26 13:26:28;;;;;;;9.00;3.75;;;;;;;25.14;36.21;99888.19;7357929;39;20395;31
2023/05/26 13:31:48;;;;;;;9.78;3.88;;;;;;;25.36;34.95;99888.34;7378465;39;20410;31
2023/05/26 13:37:09;;;;;;;5.48;3.77;;;;;;;25.31;35.20;99893.75;7355891;39;20271;31
2023/05/26 13:42:45;;;;;;;9.30;3.47;;;;;;;25.36;35.06;99888.34;7342479;39;20293;31
2023/05/26 13:53:09;;;;;;;5.87;3.72;;;;;;;25.42;35.78;99892.84;7378710;39;20275;31
2023/05/26 14:03:47;;;;;;;7.98;3.96;;;;;;;25.46;35.60;99877.47;7419000;39;20248;31
2023/05/26 14:09:22;;;;;;;8.27;4.35;;;;;;;25.34;35.02;99883.06;7379488;39;20277;31
2023/05/26 14:14:42;;;;;;;8.90;4.30;;;;;;;25.35;35.51;99870.94;7411564;39;20253;31
2023/05/26 14:20:20;;;;;;;6.83;4.23;;;;;;;25.38;35.23;99853.88;7424194;39;20239;31
2023/05/26 14:25:41;;;;;;;6.12;3.80;;;;;;;25.44;34.97;99858.41;7439014;39;20242;31
2023/05/26 14:31:16;;;;;;;6.54;3.92;;;;;;;25.46;35.40;99861.75;7452071;39;20241;31
2023/05/26 14:36:52;;;;;;;8.50;4.40;;;;;;;25.38;36.11;99853.88;7439284;39;20262;31
2023/05/26 14:47:18;;;;;;;10.10;4.03;;;;;;;25.45;34.36;99853.75;7464243;39;20273;31
2023/05/26 14:52:51;;;;;;;8.38;4.37;;;;;;;25.51;36.11;99855.50;7479806;38;20237;31
2023/05/26 14:58:26;;;;;;;9.30;4.20;;;;;;;25.56;36.17;99852.84;7463754;39;20268;31
2023/05/26 15:03:43;;;;;;;7.63;4.10;;;;;;;25.46;35.27;99858.16;7258456;39;20336;31
2023/05/26 15:09:19;;;;;;;6.74;4.32;;;;;;;25.49;36.52;99860.44;7444887;39;20265;31
2023/05/26 15:14:40;;;;;;;8.35;4.05;;;;;;;25.45;35.77;99848.22;7486595;38;20307;31
2023/05/26 15:20:01;;;;;;;7.60;4.10;;;;;;;25.51;35.82;99850.81;7493542;39;20270;31
2023/05/26 15:25:37;;;;;;;7.07;4.10;;;;;;;25.35;36.15;99845.25;7420654;39;20243;31
2023/05/26 15:31:13;;;;;;;7.15;4.15;;;;;;;25.52;36.20;99841.44;7400546;39;20348;31
2023/05/26 15:36:33;;;;;;;8.55;4.30;;;;;;;25.47;36.24;99841.34;7400902;39;20460;31
2023/05/26 15:42:08;;;;;;;9.00;4.25;;;;;;;25.39;36.05;99835.38;7405965;39;20358;31
2023/05/26 15:47:29;;;;;;;9.35;3.78;;;;;;;25.35;35.96;99834.22;7363393;39;20306;31
2023/05/26 15:52:49;;;;;;;7.80;3.90;;;;;;;25.32;37.17;99837.47;7384796;39;20370;31
2023/05/26 16:03:28;;;;;;;9.80;3.60;;;;;;;25.32;36.97;99829.19;7456154;38;20299;31
2023/05/26 16:09:04;;;;;;;9.28;4.04;;;;;;;25.32;35.69;99831.97;7473059;39;20289;31
2023/05/26 16:14:39;;;;;;;6.80;4.20;;;;;;;25.10;36.70;99835.38;7484633;38;20252;31
2023/05/26 16:20:15;;;;;;;9.90;4.06;;;;;;;24.90;36.99;99818.44;7485567;39;20266;31
2023/05/26 16:25:52;;;;;;;6.50;3.90;;;;;;;24.96;36.44;99822.12;7484791;39;20335;31
2023/05/26 16:31:13;;;;;;;8.67;4.10;;;;;;;24.85;36.28;99810.00;7400631;39;20366;31
2023/05/26 16:36:48;;;;;;;7.62;3.60;;;;;;;24.63;37.37;99817.25;7435526;39;20337;31
2023/05/26 16:42:10;;;;;;;10.63;3.60;;;;;;;24.56;36.88;99811.88;7423032;39;20333;31
2023/05/26 16:47:30;;;;;;;8.50;3.97;;;;;;;24.49;37.43;99821.34;7397706;39;20242;31
2023/05/26 16:53:09;;;;;;;9.40;4.28;;;;;;;24.33;37.36;99813.81;7426092;39;20362;31
2023/05/26 16:58:27;;;;;;;10.04;3.82;;;;;;;24.18;38.23;99814.28;7443888;39;20305;31
2023/05/26 17:03:47;;;;;;;10.18;4.28;;;;;;;23.95;38.96;99814.28;7435039;39;20257;31
2023/05/26 17:09:21;;;;;;;10.73;4.00;;;;;;;23.70;38.96;99818.06;7465248;39;20245;31
2023/05/26 17:14:41;;;;;;;10.63;3.72;;;;;;;23.61;39.19;99818.63;7424600;39;20238;31
2023/05/26 17:20:16;;;;;;;6.75;3.37;;;;;;;23.48;39.14;99818.84;7434145;39;20238;31
2023/05/26 17:25:53;;;;;;;7.66;3.60;;;;;;;23.29;40.75;99818.91;7444495;39;20242;31
2023/05/26 17:31:13;;;;;;;12.88;4.53;;;;;;;23.21;40.57;99812.88;7462984;38;20281;31
2023/05/26 17:36:48;;;;;;;9.95;3.80;;;;;;;23.04;40.84;99814.56;7485071;38;20312;31
2023/05/26 17:42:23;;;;;;;10.02;4.18;;;;;;;22.81;42.28;99818.06;7465059;39;20238;31
2023/05/26 17:47:44;;;;;;;11.05;3.97;;;;;;;22.87;42.29;99825.37;7422894;39;20243;31
2023/05/26 17:53:04;;;;;;;13.32;3.85;;;;;;;22.80;42.82;99830.97;7411248;39;20249;31
2023/05/26 17:58:40;;;;;;;9.50;4.15;;;;;;;22.67;43.05;99831.09;7380205;39;20262;31
2023/05/26 18:04:16;;;;;;;9.63;4.60;;;;;;;22.57;43.71;99843.69;7358498;39;20265;31
2023/05/26 18:09:39;;;;;;;11.00;4.35;;;;;;;22.47;43.68;99844.22;7397837;39;20296;31
2023/05/26 18:20:14;;;;;;;13.15;4.95;;;;;;;22.16;44.67;99853.41;7421554;39;20239;31
2023/05/26 18:25:35;;;;;;;12.32;4.22;;;;;;;21.99;44.96;99855.03;7404651;39;20377;31
2023/05/26 18:31:10;;;;;;;13.48;4.40;;;;;;;21.74;44.96;99854.16;7440985;39;20268;31
2023/05/26 18:36:44;;;;;;;12.15;4.40;;;;;;;21.77;44.97;99857.28;7386141;39;20250;31
2023/05/26 18:42:05;;;;;;;13.07;4.53;;;;;;;21.76;44.83;99860.28;7378420;39;20438;31
2023/05/26 18:47:37;;;;;;;11.35;3.85;;;;;;;21.73;45.61;99868.94;7320231;39;20372;31
2023/05/26 18:53:13;;;;;;;14.40;4.63;;;;;;;21.50;45.72;99859.38;7277928;40;20446;31
2023/05/26 18:58:32;;;;;;;11.90;4.65;;;;;;;21.49;45.75;99868.69;7309942;39;20339;31
2023/05/26 19:04:06;;;;;;;11.07;4.80;;;;;;;21.36;46.34;99860.53;7409090;39;20256;31
2023/05/26 19:09:42;;;;;;;12.35;4.07;;;;;;;21.26;46.66;99871.16;7463953;39;20310;31
2023/05/26 19:15:17;;;;;;;13.45;4.40;;;;;;;21.10;46.67;99871.63;7403834;39;20290;31
2023/05/26 19:20:37;;;;;;;11.80;3.80;;;;;;;21.01;46.89;99870.19;7358857;39;20244;31
2023/05/26 19:26:11;;;;;;;14.02;4.40;;;;;;;20.93;46.49;99868.50;7389191;39;20243;31
2023/05/26 19:31:46;;;;;;;11.73;4.80;;;;;;;20.84;46.13;99869.00;7345027;39;20291;31
2023/05/26 19:37:21;;;;;;;12.90;4.40;;;;;;;20.74;46.71;99872.19;7366588;39;20239;31
2023/05/26 19:42:58;;;;;;;13.95;4.32;;;;;;;20.72;47.10;99866.06;7359827;39;20239;31
2023/05/26 19:48:16;;;;;;;12.65;4.40;;;;;;;20.72;46.16;99878.91;7299365;40;20291;31
2023/05/26 19:58:56;;;;;;;11.45;4.37;;;;;;;20.40;47.49;99889.75;7424189;39;20379;31
2023/05/26 20:09:36;;;;;;;10.38;4.25;;;;;;;20.27;47.71;99895.22;7444835;39;20254;31
2023/05/26 20:20:16;;;;;;;11.90;4.30;;;;;;;19.99;47.97;99897.31;7454784;39;20371;31
2023/05/26 20:25:36;;;;;;;11.95;4.50;;;;;;;19.96;47.99;99898.59;7441948;39;20369;31
2023/05/26 20:31:00;;;;;;;17.10;4.90;;;;;;;19.98;47.59;99901.09;7427696;39;20253;31
2023/05/26 20:36:35;;;;;;;13.30;4.70;;;;;;;19.93;47.54;99901.75;7466638;39;20257;31
2023/05/26 20:42:09;;;;;;;12.25;4.50;;;;;;;19.84;46.93;99900.25;7435630;39;20250;31
2023/05/26 20:47:30;;;;;;;14.20;4.05;;;;;;;19.67;48.11;99907.19;7424346;39;21419;31
2023/05/26 20:58:10;;;;;;;14.15;4.47;;;;;;;19.60;47.98;99898.97;7446507;39;20275;31
2023/05/26 21:08:49;;;;;;;15.90;4.60;;;;;;;19.46;48.22;99912.81;7445117;39;20368;31
2023/05/26 21:14:26;;;;;;;14.75;4.50;;;;;;;19.32;48.71;99903.69;7483352;39;20409;31
2023/05/26 21:20:00;;;;;;;11.20;3.93;;;;;;;19.23;48.73;99910.41;7400440;39;20316;31
2023/05/26 21:25:35;;;;;;;11.95;4.12;;;;;;;19.20;49.22;99913.56;7444857;39;20325;31
2023/05/26 21:31:11;;;;;;;12.90;4.20;;;;;;;19.06;49.59;99925.47;7424848;39;20346;31
2023/05/26 21:36:46;;;;;;;15.75;5.15;;;;;;;19.11;48.81;99912.88;7405592;39;20317;31
2023/05/26 21:42:19;;;;;;;14.97;4.27;;;;;;;18.99;49.20;99919.16;7373122;39;20351;31
2023/05/26 21:52:59;;;;;;;13.27;5.10;;;;;;;18.82;49.89;99911.25;7419832;39;20409;31
2023/05/26 21:58:17;;;;;;;11.80;4.23;;;;;;;18.68;49.45;99920.47;7219483;39;21333;31
2023/05/26 22:08:52;;;;;;;11.43;4.23;;;;;;;18.55;49.67;99927.72;7467160;39;20316;31
2023/05/26 22:14:13;;;;;;;12.40;3.80;;;;;;;18.52;50.34;99919.91;7442773;39;20234;31
2023/05/26 22:19:47;;;;;;;13.80;4.10;;;;;;;18.36;49.77;99931.94;7454809;39;20305;31
2023/05/26 22:25:21;;;;;;;12.60;3.65;;;;;;;18.24;50.28;99922.63;7462330;39;20331;31
2023/05/26 22:36:00;;;;;;;13.08;4.00;;;;;;;18.18;49.90;99920.69;7439907;39;20284;31
2023/05/26 22:46:41;;;;;;;12.30;3.90;;;;;;;17.91;50.01;99939.56;7384653;39;20266;31
2023/05/26 22:52:01;;;;;;;11.33;3.87;;;;;;;17.84;49.82;99938.66;7401055;39;20254;31
2023/05/26 22:57:36;;;;;;;10.27;3.90;;;;;;;17.81;50.06;99933.59;7403235;39;20320;31
2023/05/26 23:03:09;;;;;;;12.03;4.27;;;;;;;17.79;50.34;99929.38;7408347;39;20242;31
2023/05/26 23:08:29;;;;;;;14.27;4.57;;;;;;;17.77;50.15;99943.19;7485477;38;20237;31
2023/05/26 23:13:49;;;;;;;15.13;4.17;;;;;;;17.74;50.00;99940.00;7515234;38;20318;31
2023/05/26 23:19:25;;;;;;;10.50;3.85;;;;;;;17.73;50.45;99938.31;7441923;39;20258;31
2023/05/26 23:24:45;;;;;;;11.60;3.40;;;;;;;17.81;50.30;99944.50;7402139;39;20334;31
2023/05/26 23:30:18;;;;;;;10.50;3.90;;;;;;;17.81;49.39;99938.22;7362298;39;20235;31
2023/05/26 23:35:54;;;;;;;12.43;4.07;;;;;;;17.66;49.72;99954.63;7317264;39;20244;31
2023/05/26 23:41:14;;;;;;;12.57;4.00;;;;;;;17.43;50.03;99940.28;7351871;39;20301;31
2023/05/26 23:46:50;;;;;;;11.00;4.27;;;;;;;17.17;50.09;99956.31;7365168;39;20301;31
2023/05/26 23:57:31;;;;;;;10.27;3.80;;;;;;;17.20;50.05;99950.50;7477219;38;20278;31
